Hauptseite
METAR-TAF:

METAR-TAF

Flughäfen :

Flughafen Mailand-Linate

Mailand, Italien

Breite: 45-26N, Länge: 009-17E, Höhe: 107 m

Beobachtung

Neuester Wetterbericht von vor 32 Minuten, um 04:50 UTC
Wind 2 kt aus Nord/Nordwest
Temperatur 15°C
Luftfeuchtigkeit 94%
Luftdruck 1016 hPa
Sichtweite 10 km oder mehr
Durchbrochene Bewölkung in der Höhe von 5000 ft

METAR: LIML 210450Z 33002KT 9999 BKN050 15/14 Q1016 NOSIG

Zeit: 07:22 (05:22 UTC)

Prognose

Neuester Wetterbericht von vor 6 Stunden und 22 Minuten, um 23:00 UTC
Gültige Prognose vom 21 um 00 UTC bis 21 um 24 UTC
Wind 5 kt aus unterschiedlichen Richtungen
Sichtweite 10 km oder mehr
Durchbrochene Bewölkung in der Höhe von 5000 ft
Zeitweise
vom 21 um 00 UTC bis 21 um 03 UTC
Sichtweite: 4000 m
Gewitter, Regen

TAF: LIML 202300Z 2100/2124 VRB05KT 9999 BKN050 TEMPO 2100/2103 4000 TSRA

Wetterbeobachtungen und Prognosen von mehr als 4000 Flughäfen (METAR und TAF Bericht).

Die verfügbaren Stationen werden durch gelbe und rote Markierungen auf der Karte dargestellt.

Führen Sie die Maus auf sie, um den Namen der Station zu sehen.

Darauf klicken, um die Beobachtung von Wetterbeobachtungen und Prognosen zu sehen.

Um die Karte zu ändern : klicken Sie auf den grünen Tasten mit einem schwarzen Kreuz Zum Vergrößern, auf den grünen Button mit einem Gedankenstrich zu verkleinern, oder auf die grünen Pfeile für benachbarte Karten.


METAR-TAF: